Time;durP1;ratioP1;P1;durP2;ratioP2;P2;SDS_P1;SDS_P2;PMS_P1;PMS_P2;Temp;Humidity;BMP_temperature;BMP_pressure;BME280_temperature;BME280_humidity;BME280_pressure;Samples;Min_cycle;Max_cycle;Signal;HPM_P1;HPM_P2
2023/12/03 00:02:24;;;;;;;37.55;18.83;;;;;;;;;;4995287;28;20054;-88
2023/12/03 00:04:54;;;;;;;35.70;17.13;;;;;;;;;;4990636;28;20065;-89
2023/12/03 00:07:20;;;;;;;33.70;15.80;;;;;;;;;;5000067;28;20054;-89
2023/12/03 00:09:52;;;;;;;37.70;16.75;;;;;;;;;;5009579;28;20042;-89
2023/12/03 00:12:20;;;;;;;35.17;16.65;;;;;;;;;;5025682;28;20074;-89
2023/12/03 00:14:46;;;;;;;33.70;16.88;;;;;;;;;;5040450;28;20125;-89
2023/12/03 00:17:17;;;;;;;36.05;16.50;;;;;;;;;;5031255;28;20077;-89
2023/12/03 00:19:43;;;;;;;34.40;16.33;;;;;;;;;;4995162;28;20041;-88
2023/12/03 00:22:09;;;;;;;34.33;15.70;;;;;;;;;;5005457;28;20107;-89
2023/12/03 00:24:37;;;;;;;33.97;14.63;;;;;;;;;;4994720;28;20431;-88
2023/12/03 00:27:09;;;;;;;32.88;15.65;;;;;;;;;;4994546;28;20118;-89
2023/12/03 00:29:38;;;;;;;31.30;15.57;;;;;;;;;;5044721;28;20045;-89
2023/12/03 00:32:04;;;;;;;36.58;17.08;;;;;;;;;;5044482;28;20433;-90
2023/12/03 00:34:31;;;;;;;39.92;16.83;;;;;;;;;;4994143;28;20352;-88
2023/12/03 00:36:57;;;;;;;39.90;17.67;;;;;;;;;;5020825;28;20128;-88
2023/12/03 00:39:25;;;;;;;34.22;16.70;;;;;;;;;;5011859;28;20481;-90
2023/12/03 00:41:56;;;;;;;30.55;15.45;;;;;;;;;;5044792;28;20042;-90
2023/12/03 00:44:22;;;;;;;36.50;15.48;;;;;;;;;;5028560;28;20050;-89
2023/12/03 00:46:50;;;;;;;35.75;16.35;;;;;;;;;;4996161;28;20053;-89
2023/12/03 00:49:16;;;;;;;34.22;16.58;;;;;;;;;;4996736;28;20042;-90
2023/12/03 00:51:44;;;;;;;35.13;15.40;;;;;;;;;;5012762;28;20057;-89
2023/12/03 00:54:12;;;;;;;35.50;15.98;;;;;;;;;;5012126;28;20065;-89
2023/12/03 00:56:38;;;;;;;32.47;15.68;;;;;;;;;;5028631;28;20498;-88
2023/12/03 00:59:04;;;;;;;33.58;16.00;;;;;;;;;;5016202;28;20139;-89
2023/12/03 01:01:30;;;;;;;33.42;16.35;;;;;;;;;;5027960;28;20122;-90
2023/12/03 01:04:00;;;;;;;36.08;15.98;;;;;;;;;;5010642;28;20073;-90
2023/12/03 01:06:26;;;;;;;33.78;16.08;;;;;;;;;;4992075;28;20135;-90
2023/12/03 01:08:54;;;;;;;37.22;15.90;;;;;;;;;;5025171;28;20038;-89
2023/12/03 01:11:20;;;;;;;40.03;17.08;;;;;;;;;;5041747;28;20336;-91
2023/12/03 01:13:47;;;;;;;36.03;15.93;;;;;;;;;;5019470;28;20456;-89
2023/12/03 01:16:17;;;;;;;38.15;17.00;;;;;;;;;;5009003;28;20047;-89
2023/12/03 01:18:46;;;;;;;34.38;16.80;;;;;;;;;;5012233;28;20107;-89
2023/12/03 01:21:13;;;;;;;33.53;16.17;;;;;;;;;;5030180;28;20464;-91
2023/12/03 01:23:39;;;;;;;34.65;16.98;;;;;;;;;;5010344;28;20045;-91
2023/12/03 01:26:05;;;;;;;34.63;16.08;;;;;;;;;;5027890;28;20148;-89
2023/12/03 01:28:31;;;;;;;33.85;16.10;;;;;;;;;;5027262;28;20076;-90
2023/12/03 01:30:57;;;;;;;39.10;17.33;;;;;;;;;;5027655;28;20088;-89
2023/12/03 01:33:23;;;;;;;32.97;16.10;;;;;;;;;;5011932;28;20500;-90
2023/12/03 01:35:49;;;;;;;38.30;16.73;;;;;;;;;;5029021;28;20041;-89
2023/12/03 01:38:15;;;;;;;38.17;17.27;;;;;;;;;;5009280;28;20045;-89
2023/12/03 01:40:50;;;;;;;40.03;17.55;;;;;;;;;;5012984;28;20049;-89
2023/12/03 01:43:21;;;;;;;33.72;16.33;;;;;;;;;;5028160;28;20042;-89
2023/12/03 01:45:48;;;;;;;34.33;16.95;;;;;;;;;;5027475;28;20042;-90
2023/12/03 01:48:14;;;;;;;36.72;17.35;;;;;;;;;;4994930;28;20038;-90
2023/12/03 01:50:41;;;;;;;35.42;16.58;;;;;;;;;;5028411;28;20066;-90
2023/12/03 01:53:09;;;;;;;34.78;18.02;;;;;;;;;;5024668;28;20061;-90
2023/12/03 01:55:38;;;;;;;36.85;18.25;;;;;;;;;;5006862;28;20049;-89
2023/12/03 01:58:04;;;;;;;37.85;17.05;;;;;;;;;;5016695;28;20103;-90
2023/12/03 02:00:32;;;;;;;39.33;17.70;;;;;;;;;;5024772;28;20592;-88
2023/12/03 02:03:03;;;;;;;43.30;18.67;;;;;;;;;;5014724;28;20053;-87
2023/12/03 02:05:29;;;;;;;39.75;17.95;;;;;;;;;;5043553;28;20084;-88
2023/12/03 02:07:55;;;;;;;43.42;18.80;;;;;;;;;;5025022;28;20149;-88
2023/12/03 02:10:21;;;;;;;45.88;18.65;;;;;;;;;;5020651;28;20132;-90
2023/12/03 02:12:51;;;;;;;50.00;20.90;;;;;;;;;;5030965;28;20128;-88
2023/12/03 02:15:17;;;;;;;50.58;20.42;;;;;;;;;;5012183;28;20052;-89
2023/12/03 02:17:44;;;;;;;56.05;20.77;;;;;;;;;;5008414;28;20508;-89
2023/12/03 02:20:10;;;;;;;78.70;20.73;;;;;;;;;;5010528;28;20051;-87
2023/12/03 02:22:38;;;;;;;79.40;21.25;;;;;;;;;;5022241;28;20049;-88
2023/12/03 02:25:04;;;;;;;76.13;19.95;;;;;;;;;;5043613;28;20488;-88
2023/12/03 02:27:30;;;;;;;109.88;21.83;;;;;;;;;;5027454;28;20061;-88
2023/12/03 02:29:57;;;;;;;112.60;22.10;;;;;;;;;;5025528;28;20046;-89
2023/12/03 02:32:23;;;;;;;136.13;25.23;;;;;;;;;;5025651;28;20453;-89
2023/12/03 02:34:49;;;;;;;88.75;21.08;;;;;;;;;;5017670;28;20111;-87
2023/12/03 02:37:19;;;;;;;80.82;22.77;;;;;;;;;;5013374;28;20042;-89
2023/12/03 02:39:45;;;;;;;59.92;21.75;;;;;;;;;;5021453;28;20053;-88
2023/12/03 02:42:11;;;;;;;55.92;21.40;;;;;;;;;;5013623;28;20369;-88
2023/12/03 02:44:37;;;;;;;56.45;22.02;;;;;;;;;;5027279;28;20053;-90
2023/12/03 02:47:03;;;;;;;60.47;21.58;;;;;;;;;;5009812;28;20046;-90
2023/12/03 02:49:32;;;;;;;52.58;22.92;;;;;;;;;;5021722;28;20155;-88
2023/12/03 02:52:02;;;;;;;52.85;21.40;;;;;;;;;;5046714;28;20038;-89
2023/12/03 02:54:32;;;;;;;52.15;21.67;;;;;;;;;;5044449;28;20492;-89
2023/12/03 02:57:03;;;;;;;52.35;20.85;;;;;;;;;;5047144;28;20438;-90
2023/12/03 02:59:29;;;;;;;50.05;20.55;;;;;;;;;;5028930;28;20042;-87
2023/12/03 03:01:57;;;;;;;52.28;22.05;;;;;;;;;;4998962;28;20054;-87
2023/12/03 03:04:24;;;;;;;53.28;21.48;;;;;;;;;;5040200;28;20116;-90
2023/12/03 03:06:50;;;;;;;49.38;20.98;;;;;;;;;;5029447;28;20405;-88
2023/12/03 03:09:19;;;;;;;55.85;20.95;;;;;;;;;;5012037;28;20500;-88
2023/12/03 03:11:46;;;;;;;43.50;20.70;;;;;;;;;;5026755;28;20106;-88
2023/12/03 03:14:13;;;;;;;49.35;19.30;;;;;;;;;;5044423;28;20448;-88
2023/12/03 03:16:40;;;;;;;53.97;21.92;;;;;;;;;;5053172;28;20041;-88
2023/12/03 03:19:06;;;;;;;52.40;20.45;;;;;;;;;;5005755;28;20074;-88
2023/12/03 03:21:37;;;;;;;52.42;21.83;;;;;;;;;;5008819;28;20354;-89
2023/12/03 03:24:03;;;;;;;56.42;22.05;;;;;;;;;;5005941;28;20166;-88
2023/12/03 03:26:29;;;;;;;59.47;22.58;;;;;;;;;;5010679;28;20069;-87
2023/12/03 03:28:57;;;;;;;53.97;19.70;;;;;;;;;;5008944;28;20042;-89
2023/12/03 03:31:24;;;;;;;69.57;22.98;;;;;;;;;;5022830;28;20061;-87
2023/12/03 03:33:50;;;;;;;70.63;22.60;;;;;;;;;;5029964;28;20411;-89
2023/12/03 03:36:17;;;;;;;75.40;22.75;;;;;;;;;;5007636;28;20145;-88
2023/12/03 03:38:46;;;;;;;70.90;21.77;;;;;;;;;;4977774;28;20050;-89
2023/12/03 03:41:15;;;;;;;96.30;24.63;;;;;;;;;;5040829;28;20496;-87
2023/12/03 03:43:41;;;;;;;67.75;21.00;;;;;;;;;;5043950;28;20072;-89
2023/12/03 03:46:07;;;;;;;108.00;23.85;;;;;;;;;;4993414;28;20046;-89
2023/12/03 03:48:33;;;;;;;99.97;24.17;;;;;;;;;;5034688;28;20046;-90
2023/12/03 03:50:59;;;;;;;111.60;24.30;;;;;;;;;;4991748;28;20061;-88
2023/12/03 03:53:26;;;;;;;124.88;26.17;;;;;;;;;;4992127;28;20693;-88
2023/12/03 03:55:52;;;;;;;114.00;23.50;;;;;;;;;;5003861;28;20125;-89
2023/12/03 03:58:19;;;;;;;139.75;25.35;;;;;;;;;;5028093;28;20121;-88
2023/12/03 04:00:45;;;;;;;155.95;27.17;;;;;;;;;;5011138;28;20058;-88
2023/12/03 04:03:11;;;;;;;127.68;23.50;;;;;;;;;;5027511;28;20492;-88
2023/12/03 04:05:38;;;;;;;149.38;24.92;;;;;;;;;;5005514;28;20480;-89
2023/12/03 04:08:04;;;;;;;142.73;24.73;;;;;;;;;;5027273;28;20046;-88
2023/12/03 04:10:30;;;;;;;166.48;25.77;;;;;;;;;;5020685;28;20412;-88
2023/12/03 04:12:56;;;;;;;116.90;23.02;;;;;;;;;;5011368;28;20050;-88
2023/12/03 04:15:22;;;;;;;124.72;23.55;;;;;;;;;;5027241;28;20050;-88
2023/12/03 04:17:48;;;;;;;105.40;22.73;;;;;;;;;;5009466;28;20208;-89
2023/12/03 04:20:14;;;;;;;124.97;23.40;;;;;;;;;;5027636;28;20148;-89
2023/12/03 04:22:40;;;;;;;110.45;20.33;;;;;;;;;;5014489;28;20064;-87
2023/12/03 04:25:06;;;;;;;84.07;20.15;;;;;;;;;;5022849;28;20054;-88
2023/12/03 04:27:32;;;;;;;63.80;17.13;;;;;;;;;;5009067;28;20447;-87
2023/12/03 04:29:58;;;;;;;114.25;22.27;;;;;;;;;;5028375;28;20038;-88
2023/12/03 04:32:24;;;;;;;82.85;19.92;;;;;;;;;;5018787;28;20101;-88
2023/12/03 04:34:50;;;;;;;114.05;22.73;;;;;;;;;;5024187;28;20722;-89
2023/12/03 04:37:17;;;;;;;103.93;21.48;;;;;;;;;;5029768;28;20072;-88
2023/12/03 04:39:46;;;;;;;108.30;21.13;;;;;;;;;;5037981;28;20095;-89
2023/12/03 04:42:13;;;;;;;106.40;21.95;;;;;;;;;;5014336;28;20056;-88
2023/12/03 04:44:41;;;;;;;93.70;20.45;;;;;;;;;;5040101;28;20038;-88
2023/12/03 04:47:07;;;;;;;78.55;20.73;;;;;;;;;;4991883;28;20050;-88
2023/12/03 04:49:33;;;;;;;101.32;21.95;;;;;;;;;;5033579;28;20506;-88
2023/12/03 04:52:00;;;;;;;74.38;20.77;;;;;;;;;;5022418;28;20049;-87
2023/12/03 04:54:26;;;;;;;88.35;20.38;;;;;;;;;;5007373;28;20706;-89
2023/12/03 04:56:52;;;;;;;80.05;20.52;;;;;;;;;;5025911;28;20045;-88
2023/12/03 04:59:18;;;;;;;84.10;21.88;;;;;;;;;;5024293;28;20046;-88
2023/12/03 05:01:45;;;;;;;92.68;20.90;;;;;;;;;;4992287;28;20060;-86
2023/12/03 05:04:12;;;;;;;95.90;21.42;;;;;;;;;;5025174;28;20054;-88
2023/12/03 05:06:38;;;;;;;96.97;21.10;;;;;;;;;;5029007;28;20176;-88
2023/12/03 05:09:05;;;;;;;61.05;16.88;;;;;;;;;;5026166;28;20114;-87
2023/12/03 05:11:31;;;;;;;78.40;18.65;;;;;;;;;;5005412;28;20096;-87
2023/12/03 05:13:57;;;;;;;59.38;16.88;;;;;;;;;;5009319;28;20046;-88
2023/12/03 05:16:23;;;;;;;57.85;16.77;;;;;;;;;;5009363;28;20042;-88
2023/12/03 05:18:50;;;;;;;59.40;15.73;;;;;;;;;;5009585;28;20084;-88
2023/12/03 05:21:16;;;;;;;63.00;16.88;;;;;;;;;;5007914;28;20061;-87
2023/12/03 05:23:42;;;;;;;87.88;17.95;;;;;;;;;;5024322;28;20492;-88
2023/12/03 05:26:08;;;;;;;59.83;17.60;;;;;;;;;;4991844;28;20142;-87
2023/12/03 05:28:34;;;;;;;72.13;17.15;;;;;;;;;;5005875;28;20145;-87
2023/12/03 05:31:00;;;;;;;91.72;18.35;;;;;;;;;;5022420;28;20042;-89
2023/12/03 05:33:26;;;;;;;65.75;16.83;;;;;;;;;;5005021;28;20086;-88
2023/12/03 05:35:52;;;;;;;83.40;19.80;;;;;;;;;;5018321;28;20133;-88
2023/12/03 05:38:18;;;;;;;58.95;17.55;;;;;;;;;;5006585;28;20042;-88
2023/12/03 05:40:44;;;;;;;81.75;18.70;;;;;;;;;;5019438;28;20042;-87
2023/12/03 05:43:10;;;;;;;129.50;21.88;;;;;;;;;;5028682;28;20619;-87
2023/12/03 05:45:37;;;;;;;73.78;19.27;;;;;;;;;;5043009;28;20145;-90
2023/12/03 05:48:03;;;;;;;84.20;19.33;;;;;;;;;;5008663;28;20157;-89
2023/12/03 05:50:29;;;;;;;104.90;20.63;;;;;;;;;;5020670;28;20240;-88
2023/12/03 05:52:57;;;;;;;81.38;19.27;;;;;;;;;;5029486;28;20050;-87
2023/12/03 05:55:23;;;;;;;57.80;16.67;;;;;;;;;;5006314;28;20042;-88
2023/12/03 05:57:49;;;;;;;88.25;18.25;;;;;;;;;;4991802;28;20147;-88
2023/12/03 06:00:15;;;;;;;84.55;19.55;;;;;;;;;;4992359;28;20438;-88
2023/12/03 06:02:41;;;;;;;95.47;22.15;;;;;;;;;;5023514;28;20073;-89
2023/12/03 06:05:07;;;;;;;102.03;22.20;;;;;;;;;;5008400;28;20535;-88
2023/12/03 06:07:33;;;;;;;82.88;19.60;;;;;;;;;;4990762;28;20489;-88
2023/12/03 06:09:59;;;;;;;82.45;22.20;;;;;;;;;;5006290;28;20088;-88
2023/12/03 06:12:25;;;;;;;87.00;20.42;;;;;;;;;;5036639;28;20157;-88
2023/12/03 06:14:51;;;;;;;76.35;20.42;;;;;;;;;;5008091;28;20482;-88
2023/12/03 06:17:17;;;;;;;69.65;19.98;;;;;;;;;;5006409;28;20042;-87
2023/12/03 06:19:44;;;;;;;65.93;18.67;;;;;;;;;;5013807;28;20053;-88
2023/12/03 06:22:10;;;;;;;57.28;18.75;;;;;;;;;;5004988;28;20050;-86
2023/12/03 06:24:36;;;;;;;57.72;18.30;;;;;;;;;;4990052;28;20403;-87
2023/12/03 06:27:02;;;;;;;62.85;19.00;;;;;;;;;;5006839;28;20472;-87
2023/12/03 06:29:28;;;;;;;64.90;18.63;;;;;;;;;;5008027;28;20072;-88
2023/12/03 06:31:54;;;;;;;69.60;20.33;;;;;;;;;;5016277;28;20047;-89
2023/12/03 06:34:20;;;;;;;62.13;18.30;;;;;;;;;;5043737;28;20064;-88
2023/12/03 06:36:46;;;;;;;65.40;18.75;;;;;;;;;;5017476;28;20480;-87
2023/12/03 06:39:12;;;;;;;73.65;20.50;;;;;;;;;;5006483;28;20050;-89
2023/12/03 06:41:39;;;;;;;60.85;19.63;;;;;;;;;;5015742;28;20050;-87
2023/12/03 06:44:05;;;;;;;70.22;18.77;;;;;;;;;;5004801;28;20058;-88
2023/12/03 06:46:38;;;;;;;56.70;18.40;;;;;;;;;;5021290;28;20078;-87
2023/12/03 06:49:04;;;;;;;60.08;19.35;;;;;;;;;;5004585;28;20041;-88
2023/12/03 06:51:30;;;;;;;66.25;18.73;;;;;;;;;;5008001;28;20105;-88
2023/12/03 06:53:56;;;;;;;66.32;19.35;;;;;;;;;;5025452;28;20665;-88
2023/12/03 06:56:29;;;;;;;61.65;19.88;;;;;;;;;;5017652;28;20407;-89
2023/12/03 06:58:55;;;;;;;71.45;20.65;;;;;;;;;;5013045;28;20045;-87
2023/12/03 07:01:22;;;;;;;65.82;19.75;;;;;;;;;;5012874;28;20537;-90
2023/12/03 07:03:48;;;;;;;53.78;18.60;;;;;;;;;;5011144;28;20200;-87
2023/12/03 07:06:14;;;;;;;60.28;18.70;;;;;;;;;;5002832;28;20054;-89
2023/12/03 07:08:40;;;;;;;61.33;18.48;;;;;;;;;;5022437;28;20041;-88
2023/12/03 07:11:07;;;;;;;68.72;18.73;;;;;;;;;;4998170;28;20173;-87
2023/12/03 07:13:33;;;;;;;66.97;18.08;;;;;;;;;;4995137;28;20049;-87
2023/12/03 07:15:59;;;;;;;61.85;18.70;;;;;;;;;;5006753;28;20416;-88
2023/12/03 07:18:25;;;;;;;64.70;19.38;;;;;;;;;;5028202;28;20755;-87
2023/12/03 07:20:51;;;;;;;54.40;18.33;;;;;;;;;;5024788;28;20038;-87
2023/12/03 07:23:17;;;;;;;68.00;20.70;;;;;;;;;;5027184;28;20056;-86
2023/12/03 07:25:43;;;;;;;59.35;19.70;;;;;;;;;;5001434;28;20440;-86
2023/12/03 07:28:09;;;;;;;63.38;19.48;;;;;;;;;;5013060;28;20061;-85
2023/12/03 07:30:35;;;;;;;53.38;18.98;;;;;;;;;;5013362;28;20049;-86
2023/12/03 07:33:01;;;;;;;57.63;19.08;;;;;;;;;;5008764;28;20046;-83
2023/12/03 07:35:27;;;;;;;55.80;19.83;;;;;;;;;;5043159;28;20069;-88
2023/12/03 07:37:53;;;;;;;59.05;18.92;;;;;;;;;;5026130;28;20049;-85
2023/12/03 07:40:19;;;;;;;66.20;23.80;;;;;;;;;;5042294;28;20419;-85
2023/12/03 07:42:48;;;;;;;62.85;21.70;;;;;;;;;;5025845;28;20050;-86
2023/12/03 07:45:14;;;;;;;66.93;24.70;;;;;;;;;;5040842;28;20042;-87
2023/12/03 07:47:40;;;;;;;74.35;24.70;;;;;;;;;;5024482;28;20049;-86
2023/12/03 07:50:06;;;;;;;66.45;22.48;;;;;;;;;;5028682;28;20049;-85
2023/12/03 07:52:32;;;;;;;64.53;22.75;;;;;;;;;;5028413;28;20132;-86
2023/12/03 07:54:58;;;;;;;54.40;19.95;;;;;;;;;;5028096;28;20494;-86
2023/12/03 07:57:24;;;;;;;63.58;21.60;;;;;;;;;;5028447;28;20113;-86
2023/12/03 07:59:51;;;;;;;68.95;25.33;;;;;;;;;;5009521;28;20189;-85
2023/12/03 08:02:19;;;;;;;58.47;19.90;;;;;;;;;;5022187;28;20054;-86
2023/12/03 08:04:45;;;;;;;61.75;22.40;;;;;;;;;;5028860;28;20514;-86
2023/12/03 08:07:11;;;;;;;68.05;21.88;;;;;;;;;;5007579;28;20119;-87
2023/12/03 08:09:38;;;;;;;52.70;18.70;;;;;;;;;;5041571;28;20479;-85
2023/12/03 08:12:04;;;;;;;58.75;21.17;;;;;;;;;;5024949;28;20120;-85
2023/12/03 08:14:30;;;;;;;68.03;24.65;;;;;;;;;;5007798;28;20049;-85
2023/12/03 08:16:56;;;;;;;55.08;19.65;;;;;;;;;;5025941;28;20157;-87
2023/12/03 08:19:25;;;;;;;52.53;17.70;;;;;;;;;;5010965;28;20509;-84
2023/12/03 08:21:51;;;;;;;48.60;17.38;;;;;;;;;;5030704;28;20041;-83
2023/12/03 08:24:17;;;;;;;55.83;18.08;;;;;;;;;;5007707;28;20077;-84
2023/12/03 08:26:45;;;;;;;49.35;17.33;;;;;;;;;;5024448;28;20053;-85
2023/12/03 08:29:12;;;;;;;43.22;15.95;;;;;;;;;;5013865;28;20157;-85
2023/12/03 08:31:38;;;;;;;46.42;17.58;;;;;;;;;;4989432;28;20043;-84
2023/12/03 08:34:04;;;;;;;48.33;17.98;;;;;;;;;;5009888;28;20046;-88
2023/12/03 08:36:31;;;;;;;53.65;19.02;;;;;;;;;;5026984;28;20041;-85
2023/12/03 08:38:57;;;;;;;48.55;20.02;;;;;;;;;;5027551;28;20103;-84
2023/12/03 08:41:23;;;;;;;52.13;19.77;;;;;;;;;;5028197;28;20049;-85
2023/12/03 08:43:49;;;;;;;49.42;17.55;;;;;;;;;;5017258;28;20053;-86
2023/12/03 08:46:20;;;;;;;50.85;17.75;;;;;;;;;;5007404;28;20076;-87
2023/12/03 08:48:46;;;;;;;47.80;18.10;;;;;;;;;;5024111;28;20054;-86
2023/12/03 08:51:13;;;;;;;46.47;18.75;;;;;;;;;;5008296;28;20088;-87
2023/12/03 08:53:39;;;;;;;42.33;16.77;;;;;;;;;;5010175;28;20508;-89
2023/12/03 08:56:10;;;;;;;45.88;19.30;;;;;;;;;;4996938;28;20092;-87
2023/12/03 08:58:37;;;;;;;53.13;18.63;;;;;;;;;;5023336;28;20073;-91
2023/12/03 09:01:04;;;;;;;54.88;20.30;;;;;;;;;;5027881;28;20053;-89
2023/12/03 09:03:30;;;;;;;55.35;20.55;;;;;;;;;;5024389;28;20045;-86
2023/12/03 09:05:56;;;;;;;56.30;21.77;;;;;;;;;;5032517;28;20045;-87
2023/12/03 09:08:22;;;;;;;50.88;20.80;;;;;;;;;;5019574;28;20053;-86
2023/12/03 09:10:50;;;;;;;53.53;21.55;;;;;;;;;;5025727;28;20049;-89
2023/12/03 09:13:16;;;;;;;50.78;22.20;;;;;;;;;;5008163;28;20050;-87
2023/12/03 09:15:42;;;;;;;43.22;19.63;;;;;;;;;;5009406;28;20057;-91
2023/12/03 09:18:10;;;;;;;47.75;22.33;;;;;;;;;;4990960;28;20122;-88
2023/12/03 09:20:36;;;;;;;48.42;20.48;;;;;;;;;;5027161;28;20519;-88
2023/12/03 09:23:02;;;;;;;48.22;22.08;;;;;;;;;;5009164;28;20046;-88
2023/12/03 09:25:28;;;;;;;44.20;20.95;;;;;;;;;;5024133;28;20045;-89
2023/12/03 09:27:54;;;;;;;46.28;21.33;;;;;;;;;;4998354;28;20050;-90
2023/12/03 09:30:20;;;;;;;48.75;21.85;;;;;;;;;;5024016;28;20049;-92
2023/12/03 09:32:46;;;;;;;45.03;22.52;;;;;;;;;;5008194;28;20050;-90
2023/12/03 09:35:12;;;;;;;45.25;23.25;;;;;;;;;;5008444;28;20045;-87
2023/12/03 09:37:38;;;;;;;44.15;23.38;;;;;;;;;;5008995;28;20049;-85
2023/12/03 09:40:05;;;;;;;44.20;23.15;;;;;;;;;;5010296;28;20045;-91
2023/12/03 09:42:34;;;;;;;42.72;22.60;;;;;;;;;;5005228;28;20053;-89
2023/12/03 09:45:04;;;;;;;40.88;23.35;;;;;;;;;;5021133;28;20507;-89
2023/12/03 09:47:37;;;;;;;42.55;23.65;;;;;;;;;;5022413;28;20133;-88
2023/12/03 09:50:07;;;;;;;44.70;24.23;;;;;;;;;;5005683;28;20043;-90
2023/12/03 09:52:36;;;;;;;42.65;24.08;;;;;;;;;;5021062;28;20053;-90
2023/12/03 09:55:03;;;;;;;44.03;24.80;;;;;;;;;;5036919;28;20041;-88
2023/12/03 09:57:31;;;;;;;46.78;25.85;;;;;;;;;;5016834;28;20084;-90
2023/12/03 09:59:58;;;;;;;47.05;24.42;;;;;;;;;;5047952;28;20045;-92
2023/12/03 10:02:26;;;;;;;45.22;23.85;;;;;;;;;;5030817;28;20046;-92
2023/12/03 10:04:53;;;;;;;42.92;24.70;;;;;;;;;;5047519;28;20046;-92
2023/12/03 10:07:28;;;;;;;42.60;25.10;;;;;;;;;;5031908;28;20051;-92
2023/12/03 10:09:58;;;;;;;45.03;25.73;;;;;;;;;;5029653;28;20049;-93
2023/12/03 10:12:26;;;;;;;39.78;24.95;;;;;;;;;;4995453;28;20645;-92
2023/12/03 10:15:00;;;;;;;41.17;24.60;;;;;;;;;;5011998;28;20052;-92
2023/12/03 10:17:30;;;;;;;39.88;24.10;;;;;;;;;;5012489;28;20053;-92
2023/12/03 10:20:23;;;;;;;35.40;22.55;;;;;;;;;;5011364;28;20077;-92
2023/12/03 10:22:50;;;;;;;38.67;23.70;;;;;;;;;;5011586;28;20038;-92
2023/12/03 10:25:29;;;;;;;44.92;25.65;;;;;;;;;;5011647;28;20061;-92
2023/12/03 10:27:55;;;;;;;40.35;24.15;;;;;;;;;;5023561;28;20526;-93
2023/12/03 10:30:32;;;;;;;37.70;23.92;;;;;;;;;;5020430;28;20125;-93
2023/12/03 10:32:58;;;;;;;38.65;22.90;;;;;;;;;;5015652;28;20096;-93
2023/12/03 10:35:37;;;;;;;35.15;22.50;;;;;;;;;;5015768;28;20132;-93
2023/12/03 10:38:26;;;;;;;38.15;23.38;;;;;;;;;;5015533;28;20042;-92
2023/12/03 10:41:23;;;;;;;32.83;20.92;;;;;;;;;;5000100;28;20442;-93
2023/12/03 10:43:59;;;;;;;35.45;22.38;;;;;;;;;;4999600;28;20481;-93
2023/12/03 10:46:26;;;;;;;35.70;22.65;;;;;;;;;;4998791;28;20046;-92
2023/12/03 10:48:53;;;;;;;32.60;21.95;;;;;;;;;;4999648;28;20046;-93
2023/12/03 10:51:30;;;;;;;35.90;21.83;;;;;;;;;;5003746;28;20042;-93
2023/12/03 10:53:57;;;;;;;35.00;21.25;;;;;;;;;;5001608;28;20412;-92
2023/12/03 10:56:25;;;;;;;35.97;22.25;;;;;;;;;;5015222;28;20048;-92
2023/12/03 10:58:52;;;;;;;36.63;22.25;;;;;;;;;;5004726;28;20042;-92
2023/12/03 11:01:25;;;;;;;33.13;21.42;;;;;;;;;;5051661;28;20052;-93
2023/12/03 11:04:03;;;;;;;;;;;;;;;;;;5036668;28;20099;-92
2023/12/03 11:06:33;;;;;;;33.85;20.67;;;;;;;;;;5051979;28;19921;-92
2023/12/03 11:09:16;;;;;;;33.80;21.10;;;;;;;;;;5052030;28;20037;-93
2023/12/03 11:11:53;;;;;;;33.55;20.05;;;;;;;;;;5038878;28;20042;-94
2023/12/03 11:14:22;;;;;;;32.47;20.55;;;;;;;;;;5029303;28;20515;-92
2023/12/03 11:17:05;;;;;;;31.38;20.85;;;;;;;;;;5028436;28;20057;-94
2023/12/03 11:19:35;;;;;;;32.70;19.35;;;;;;;;;;5028206;28;20104;-94
2023/12/03 11:22:23;;;;;;;34.45;20.23;;;;;;;;;;5028460;28;20092;-92
2023/12/03 11:24:56;;;;;;;27.23;18.40;;;;;;;;;;5028851;28;20046;-93
2023/12/03 11:27:26;;;;;;;27.60;18.23;;;;;;;;;;5027961;28;20073;-93
2023/12/03 11:29:53;;;;;;;28.15;18.58;;;;;;;;;;5027006;28;20042;-92
2023/12/03 11:32:19;;;;;;;29.73;18.13;;;;;;;;;;5035499;28;20100;-93
2023/12/03 11:34:55;;;;;;;30.77;17.75;;;;;;;;;;5021037;28;20509;-93
2023/12/03 11:37:22;;;;;;;31.08;18.67;;;;;;;;;;5015474;28;20041;-92
2023/12/03 11:39:48;;;;;;;28.38;18.77;;;;;;;;;;4995441;28;20053;-92
2023/12/03 11:42:18;;;;;;;30.52;19.10;;;;;;;;;;5013182;28;20042;-93
2023/12/03 11:44:46;;;;;;;35.50;19.70;;;;;;;;;;4998020;28;20081;-93
2023/12/03 11:47:13;;;;;;;33.38;19.45;;;;;;;;;;5016284;28;20046;-93
2023/12/03 11:49:40;;;;;;;32.20;19.98;;;;;;;;;;5029081;28;20046;-93
2023/12/03 11:52:09;;;;;;;33.47;19.75;;;;;;;;;;5047792;28;20419;-94
2023/12/03 11:54:37;;;;;;;39.40;21.98;;;;;;;;;;5049222;28;20053;-93
2023/12/03 11:57:03;;;;;;;35.50;21.33;;;;;;;;;;5033637;28;20050;-93
2023/12/03 11:59:29;;;;;;;33.95;21.27;;;;;;;;;;5048852;28;20084;-91
2023/12/03 12:01:55;;;;;;;40.55;23.40;;;;;;;;;;5042106;28;20180;-92
2023/12/03 12:04:22;;;;;;;54.67;29.67;;;;;;;;;;4991817;28;20072;-93
2023/12/03 12:06:48;;;;;;;52.85;29.38;;;;;;;;;;5013514;28;20084;-93
2023/12/03 12:09:21;;;;;;;53.50;28.27;;;;;;;;;;5048753;28;20068;-92
2023/12/03 12:11:51;;;;;;;47.78;25.35;;;;;;;;;;5036446;28;20045;-93
2023/12/03 12:14:17;;;;;;;39.95;22.67;;;;;;;;;;5045056;28;20045;-93
2023/12/03 12:16:44;;;;;;;43.55;24.30;;;;;;;;;;5044551;28;20440;-93
2023/12/03 12:19:10;;;;;;;40.22;24.35;;;;;;;;;;5045455;28;20077;-92
2023/12/03 12:21:50;;;;;;;43.20;24.58;;;;;;;;;;5046476;28;20057;-93
2023/12/03 12:24:23;;;;;;;41.45;23.92;;;;;;;;;;5030133;28;20080;-92
2023/12/03 12:26:49;;;;;;;38.03;23.42;;;;;;;;;;5013568;28;20068;-93
2023/12/03 12:29:15;;;;;;;40.00;24.88;;;;;;;;;;5014080;28;20239;-90
2023/12/03 12:31:44;;;;;;;43.75;24.70;;;;;;;;;;5017943;28;20056;-94
2023/12/03 12:34:31;;;;;;;44.60;25.58;;;;;;;;;;5019098;28;20049;-93
2023/12/03 12:37:05;;;;;;;39.78;24.15;;;;;;;;;;5013353;28;20073;-93
2023/12/03 12:39:43;;;;;;;39.45;22.92;;;;;;;;;;5015794;28;20049;-91
2023/12/03 12:42:22;;;;;;;39.65;23.52;;;;;;;;;;5022768;28;20062;-93
2023/12/03 12:44:48;;;;;;;39.42;22.83;;;;;;;;;;5009534;28;20124;-92
2023/12/03 12:47:14;;;;;;;36.00;21.70;;;;;;;;;;4999729;28;20507;-92
2023/12/03 12:49:57;;;;;;;39.17;22.23;;;;;;;;;;4998183;28;20077;-92
2023/12/03 12:52:34;;;;;;;37.90;22.33;;;;;;;;;;5018360;28;20535;-93
2023/12/03 12:55:04;;;;;;;38.67;22.92;;;;;;;;;;5014494;28;20045;-92
2023/12/03 12:57:34;;;;;;;37.90;21.95;;;;;;;;;;5032997;28;20093;-91
2023/12/03 13:00:00;;;;;;;35.25;21.55;;;;;;;;;;5031606;28;20083;-90
2023/12/03 13:02:27;;;;;;;34.70;20.40;;;;;;;;;;5031843;28;20517;-90
2023/12/03 13:04:53;;;;;;;35.17;20.27;;;;;;;;;;5029532;28;20052;-91
2023/12/03 13:07:20;;;;;;;31.85;20.20;;;;;;;;;;5028666;28;20053;-91
2023/12/03 13:09:46;;;;;;;32.17;18.88;;;;;;;;;;5012842;28;20042;-90
2023/12/03 13:12:14;;;;;;;26.85;17.30;;;;;;;;;;4994773;28;20046;-91
2023/12/03 13:14:47;;;;;;;28.98;17.38;;;;;;;;;;4995308;28;20098;-91
2023/12/03 13:17:14;;;;;;;28.27;16.67;;;;;;;;;;4995207;28;20062;-92
2023/12/03 13:19:40;;;;;;;30.55;18.13;;;;;;;;;;5012385;28;20130;-92
2023/12/03 13:22:11;;;;;;;25.90;15.27;;;;;;;;;;5022581;28;20469;-92
2023/12/03 13:24:46;;;;;;;27.88;15.73;;;;;;;;;;5016601;28;20144;-93
2023/12/03 13:27:13;;;;;;;28.05;16.55;;;;;;;;;;5019899;28;20068;-91
2023/12/03 13:29:41;;;;;;;29.13;15.75;;;;;;;;;;5014943;28;20077;-93
2023/12/03 13:32:19;;;;;;;27.80;16.38;;;;;;;;;;5014867;28;20052;-92
2023/12/03 13:34:49;;;;;;;25.23;14.93;;;;;;;;;;5016709;28;20152;-92
2023/12/03 13:37:27;;;;;;;25.63;15.55;;;;;;;;;;5003238;28;20042;-92
2023/12/03 13:39:54;;;;;;;22.92;13.88;;;;;;;;;;5033273;28;20178;-90
2023/12/03 13:42:24;;;;;;;25.83;14.40;;;;;;;;;;5038878;28;20445;-91
2023/12/03 13:44:55;;;;;;;25.48;14.15;;;;;;;;;;4992987;28;20153;-93
2023/12/03 13:47:23;;;;;;;23.98;15.43;;;;;;;;;;4992399;28;20057;-90
2023/12/03 13:49:49;;;;;;;24.17;14.95;;;;;;;;;;4994329;28;20100;-93
2023/12/03 13:52:29;;;;;;;23.98;14.65;;;;;;;;;;5019701;28;20065;-92
2023/12/03 13:54:58;;;;;;;23.63;15.23;;;;;;;;;;5023929;28;20069;-88
2023/12/03 13:57:24;;;;;;;26.33;14.68;;;;;;;;;;5022643;28;20060;-89
2023/12/03 13:59:51;;;;;;;26.63;15.68;;;;;;;;;;5007261;28;20483;-91
2023/12/03 14:02:17;;;;;;;27.05;15.60;;;;;;;;;;5007000;28;20085;-90
2023/12/03 14:04:43;;;;;;;24.77;14.60;;;;;;;;;;5007022;28;20045;-89
2023/12/03 14:07:09;;;;;;;25.42;15.57;;;;;;;;;;5022557;28;20097;-91
2023/12/03 14:09:35;;;;;;;28.40;16.52;;;;;;;;;;5013351;28;20100;-90
2023/12/03 14:12:02;;;;;;;28.10;16.08;;;;;;;;;;4977483;28;20564;-92
2023/12/03 14:14:28;;;;;;;27.08;17.23;;;;;;;;;;4973893;28;20054;-91
2023/12/03 14:16:55;;;;;;;25.75;15.38;;;;;;;;;;4989922;28;20051;-88
2023/12/03 14:19:23;;;;;;;27.77;16.38;;;;;;;;;;4989233;28;20050;-88
2023/12/03 14:21:51;;;;;;;26.40;15.77;;;;;;;;;;5041813;28;20050;-89